createdAt,value
2023-05-29T00:01:34.190Z,7.38
2023-05-29T00:04:01.026Z,7.30
2023-05-29T00:06:27.937Z,8.13
2023-05-29T00:08:54.676Z,7.50
2023-05-29T00:11:21.582Z,7.15
2023-05-29T00:13:48.327Z,7.97
2023-05-29T00:16:15.012Z,6.97
2023-05-29T00:18:46.718Z,7.43
2023-05-29T00:21:15.153Z,7.07
2023-05-29T00:23:42.209Z,7.35
2023-05-29T00:26:09.072Z,7.47
2023-05-29T00:28:37.347Z,7.18
2023-05-29T00:31:04.133Z,7.03
2023-05-29T00:33:33.297Z,6.60
2023-05-29T00:36:00.148Z,6.78
2023-05-29T00:38:26.850Z,6.45
2023-05-29T00:40:53.678Z,6.72
2023-05-29T00:43:20.406Z,6.55
2023-05-29T00:45:47.294Z,6.85
2023-05-29T00:48:14.169Z,7.78
2023-05-29T00:50:41.900Z,6.95
2023-05-29T00:53:09.346Z,6.93
2023-05-29T00:55:36.983Z,7.38
2023-05-29T00:58:03.855Z,6.65
2023-05-29T01:00:31.909Z,5.97
2023-05-29T01:02:59.703Z,6.53
2023-05-29T01:05:26.603Z,6.70
2023-05-29T01:07:53.278Z,6.55
2023-05-29T01:10:20.176Z,6.70
2023-05-29T01:13:12.751Z,6.55
2023-05-29T01:15:59.662Z,6.78
2023-05-29T01:18:41.206Z,6.93
2023-05-29T01:21:15.572Z,6.95
2023-05-29T01:23:54.109Z,6.63
2023-05-29T01:26:41.387Z,7.82
2023-05-29T01:29:08.919Z,6.93
2023-05-29T01:31:38.148Z,6.90
2023-05-29T01:34:04.788Z,6.32
2023-05-29T01:36:33.924Z,6.72
2023-05-29T01:39:01.753Z,7.60
2023-05-29T01:41:30.415Z,6.63
2023-05-29T01:43:59.440Z,6.47
2023-05-29T01:46:27.037Z,7.35
2023-05-29T01:48:55.379Z,7.50
2023-05-29T01:51:22.518Z,7.45
2023-05-29T01:53:49.374Z,6.85
2023-05-29T01:56:16.489Z,7.15
2023-05-29T01:58:44.528Z,7.00
2023-05-29T02:01:11.856Z,7.68
2023-05-29T02:03:38.565Z,6.80
2023-05-29T02:06:05.378Z,7.50
2023-05-29T02:08:32.052Z,6.68
2023-05-29T02:10:58.776Z,6.97
2023-05-29T02:13:25.562Z,6.80
2023-05-29T02:15:52.203Z,7.32
2023-05-29T02:18:18.902Z,6.97
2023-05-29T02:20:46.151Z,7.03
2023-05-29T02:23:13.195Z,6.70
2023-05-29T02:25:40.216Z,7.25
2023-05-29T02:28:07.027Z,7.22
2023-05-29T02:30:34.400Z,6.75
2023-05-29T02:33:02.387Z,6.28
2023-05-29T02:35:29.323Z,6.20
2023-05-29T02:37:56.100Z,6.60
2023-05-29T02:40:22.949Z,6.75
2023-05-29T02:42:49.640Z,6.40
2023-05-29T02:45:16.320Z,6.30
2023-05-29T02:47:43.026Z,6.60
2023-05-29T02:50:10.293Z,6.68
2023-05-29T02:52:41.024Z,6.93
2023-05-29T02:55:08.035Z,6.78
2023-05-29T02:57:34.677Z,7.05
2023-05-29T03:00:02.018Z,6.80
2023-05-29T03:02:28.918Z,6.90
2023-05-29T03:04:55.782Z,7.00
2023-05-29T03:07:22.748Z,6.63
2023-05-29T03:09:49.371Z,7.55
2023-05-29T03:12:16.188Z,8.35
2023-05-29T03:14:42.862Z,8.07
2023-05-29T03:17:09.487Z,7.38
2023-05-29T03:19:36.137Z,7.90
2023-05-29T03:22:02.760Z,7.00
2023-05-29T03:24:29.520Z,6.57
2023-05-29T03:26:57.374Z,6.75
2023-05-29T03:29:24.118Z,6.00
2023-05-29T03:31:51.038Z,6.78
2023-05-29T03:34:17.945Z,6.60
2023-05-29T03:36:44.885Z,6.40
2023-05-29T03:39:11.520Z,7.00
2023-05-29T03:41:38.223Z,6.78
2023-05-29T03:44:05.142Z,6.97
2023-05-29T03:46:33.094Z,7.28
2023-05-29T03:48:59.884Z,7.03
2023-05-29T03:51:26.661Z,7.80
2023-05-29T03:53:53.300Z,6.97
2023-05-29T03:56:20.101Z,6.78
2023-05-29T03:58:46.829Z,7.20
2023-05-29T04:01:13.541Z,6.55
2023-05-29T04:03:40.600Z,6.63
2023-05-29T04:06:07.970Z,7.07
2023-05-29T04:08:34.652Z,6.60
2023-05-29T04:11:02.561Z,6.78
2023-05-29T04:13:29.318Z,6.85
2023-05-29T04:15:56.344Z,7.00
2023-05-29T04:18:23.331Z,6.65
2023-05-29T04:20:50.169Z,7.40
2023-05-29T04:23:16.995Z,7.25
2023-05-29T04:25:45.168Z,7.85
2023-05-29T04:28:11.934Z,6.43
2023-05-29T04:30:40.363Z,7.82
2023-05-29T04:33:07.174Z,7.25
2023-05-29T04:35:33.914Z,7.63
2023-05-29T04:38:00.608Z,6.72
2023-05-29T04:40:27.797Z,8.18
2023-05-29T04:42:54.522Z,7.47
2023-05-29T04:45:22.287Z,7.80
2023-05-29T04:47:49.330Z,7.55
2023-05-29T04:50:17.812Z,7.90
2023-05-29T04:52:45.351Z,7.72
2023-05-29T04:55:12.999Z,7.88
2023-05-29T04:57:39.757Z,8.85
2023-05-29T05:00:08.368Z,9.30
2023-05-29T05:02:35.299Z,9.27
2023-05-29T05:05:02.049Z,9.77
2023-05-29T05:07:28.658Z,8.80
2023-05-29T05:09:55.275Z,9.10
2023-05-29T05:12:22.032Z,10.35
2023-05-29T05:14:48.845Z,10.40
2023-05-29T05:17:15.605Z,9.38
2023-05-29T05:19:42.259Z,9.05
2023-05-29T05:22:08.899Z,9.25
2023-05-29T05:24:36.265Z,8.38
2023-05-29T05:27:02.934Z,9.13
2023-05-29T05:29:29.597Z,8.73
2023-05-29T05:31:56.298Z,9.48
2023-05-29T05:34:23.294Z,8.43
2023-05-29T05:36:50.723Z,8.80
2023-05-29T05:39:17.435Z,8.60
2023-05-29T05:41:44.254Z,8.98
2023-05-29T05:44:11.067Z,8.27
2023-05-29T05:46:37.894Z,8.70
2023-05-29T05:49:04.795Z,9.68
2023-05-29T05:51:32.176Z,8.95
2023-05-29T05:53:58.954Z,8.68
2023-05-29T05:56:27.361Z,8.60
2023-05-29T05:58:54.095Z,9.30
2023-05-29T06:01:21.419Z,8.30
2023-05-29T06:03:48.200Z,8.35
2023-05-29T06:06:15.349Z,8.50
2023-05-29T06:08:42.922Z,8.70
2023-05-29T06:11:10.060Z,8.85
2023-05-29T06:13:36.814Z,9.15
2023-05-29T06:16:03.728Z,8.82
2023-05-29T06:18:30.432Z,8.60
2023-05-29T06:20:58.021Z,8.82
2023-05-29T06:23:25.170Z,8.45
2023-05-29T06:25:52.405Z,8.32
2023-05-29T06:28:19.046Z,8.65
2023-05-29T06:30:46.640Z,9.50
2023-05-29T06:33:13.796Z,8.95
2023-05-29T06:35:41.013Z,8.02
2023-05-29T06:38:07.735Z,8.88
2023-05-29T06:40:34.393Z,8.00
2023-05-29T06:43:01.837Z,8.43
2023-05-29T06:45:28.536Z,8.70
2023-05-29T06:47:56.584Z,8.15
2023-05-29T06:50:23.946Z,8.25
2023-05-29T06:52:50.689Z,8.73
2023-05-29T06:55:17.972Z,8.50
2023-05-29T06:57:44.619Z,8.30
2023-05-29T07:00:12.374Z,8.63
2023-05-29T07:02:39.386Z,9.00
2023-05-29T07:05:06.390Z,8.48
2023-05-29T07:07:33.165Z,8.50
2023-05-29T07:09:59.858Z,8.65
2023-05-29T07:12:26.487Z,8.57
2023-05-29T07:14:53.114Z,8.25
2023-05-29T07:17:20.150Z,8.50
2023-05-29T07:19:47.933Z,7.93
2023-05-29T07:22:14.611Z,9.20
2023-05-29T07:24:41.998Z,8.68
2023-05-29T07:27:08.665Z,8.48
2023-05-29T07:29:35.475Z,9.00
2023-05-29T07:32:02.147Z,8.63
2023-05-29T07:34:28.864Z,7.97
2023-05-29T07:37:06.196Z,7.65
2023-05-29T07:39:34.329Z,8.13
2023-05-29T07:42:04.192Z,7.38
2023-05-29T07:44:31.284Z,7.57
2023-05-29T07:46:58.013Z,8.40
2023-05-29T07:49:24.740Z,8.20
2023-05-29T07:51:51.735Z,8.15
2023-05-29T07:54:19.591Z,7.90
2023-05-29T07:56:46.981Z,8.13
2023-05-29T07:59:13.926Z,8.25
2023-05-29T08:01:42.745Z,7.60
2023-05-29T08:04:09.523Z,7.38
2023-05-29T08:06:36.250Z,8.18
2023-05-29T08:09:03.469Z,8.05
2023-05-29T08:11:30.511Z,7.90
2023-05-29T08:13:57.189Z,8.55
2023-05-29T08:16:24.321Z,9.35
2023-05-29T08:18:51.166Z,8.70
2023-05-29T08:21:17.850Z,8.05
2023-05-29T08:23:44.503Z,7.85
2023-05-29T08:26:11.349Z,8.63
2023-05-29T08:28:39.623Z,8.20
2023-05-29T08:31:07.718Z,7.90
2023-05-29T08:33:34.484Z,8.18
2023-05-29T08:36:01.360Z,8.00
2023-05-29T08:38:28.078Z,8.13
2023-05-29T08:40:57.659Z,8.10
2023-05-29T08:43:25.228Z,8.88
2023-05-29T08:45:56.078Z,8.25
2023-05-29T08:48:26.597Z,9.40
2023-05-29T08:50:56.333Z,9.23
2023-05-29T08:53:24.968Z,8.70
2023-05-29T08:55:53.896Z,8.00
2023-05-29T08:58:25.056Z,8.68
2023-05-29T09:03:40.081Z,8.50
2023-05-29T09:06:08.414Z,8.52
2023-05-29T09:08:36.252Z,8.50
2023-05-29T09:11:02.948Z,10.60
2023-05-29T09:13:29.749Z,8.90
2023-05-29T09:16:00.889Z,8.35
2023-05-29T09:18:32.457Z,7.30
2023-05-29T09:21:02.760Z,8.15
2023-05-29T09:23:30.216Z,7.28
2023-05-29T09:25:57.067Z,7.50
2023-05-29T09:28:25.085Z,7.75
2023-05-29T09:30:51.883Z,8.63
2023-05-29T09:33:18.893Z,7.97
2023-05-29T09:35:48.177Z,8.05
2023-05-29T09:40:49.205Z,7.65
2023-05-29T09:43:21.314Z,7.13
2023-05-29T09:45:51.667Z,8.27
2023-05-29T09:48:28.292Z,7.47
2023-05-29T09:50:56.678Z,7.13
2023-05-29T09:53:27.132Z,7.80
2023-05-29T09:55:59.209Z,7.68
2023-05-29T09:58:26.752Z,8.10
2023-05-29T10:00:54.668Z,6.72
2023-05-29T10:03:23.149Z,6.97
2023-05-29T10:06:05.573Z,7.43
2023-05-29T10:08:37.611Z,7.18
2023-05-29T10:11:05.531Z,7.18
2023-05-29T10:13:42.577Z,7.15
2023-05-29T10:16:11.840Z,7.43
2023-05-29T10:18:41.113Z,6.68
2023-05-29T10:23:39.274Z,6.43
2023-05-29T10:26:16.775Z,6.88
2023-05-29T10:28:51.253Z,5.03
2023-05-29T10:31:24.700Z,6.68
2023-05-29T10:34:10.942Z,6.78
2023-05-29T10:36:46.690Z,6.40
2023-05-29T10:39:13.746Z,7.10
2023-05-29T10:41:43.495Z,7.10
2023-05-29T10:44:36.419Z,6.20
2023-05-29T10:47:05.726Z,6.70
2023-05-29T10:49:32.919Z,5.82
2023-05-29T10:52:01.203Z,6.85
2023-05-29T10:54:28.260Z,6.85
2023-05-29T10:57:02.436Z,6.63
2023-05-29T10:59:30.271Z,6.03
2023-05-29T11:01:58.883Z,6.37
2023-05-29T11:04:29.533Z,6.20
2023-05-29T11:06:56.526Z,6.65
2023-05-29T11:09:41.185Z,6.65
2023-05-29T11:12:37.473Z,6.40
2023-05-29T11:15:12.042Z,6.20
2023-05-29T11:17:38.781Z,6.45
2023-05-29T11:20:11.276Z,6.35
2023-05-29T11:22:43.904Z,6.55
2023-05-29T11:25:11.124Z,6.03
2023-05-29T11:27:38.562Z,5.72
2023-05-29T11:30:06.973Z,6.25
2023-05-29T11:32:37.344Z,6.20
2023-05-29T11:35:12.706Z,6.60
2023-05-29T11:37:41.121Z,6.53
2023-05-29T11:40:10.340Z,6.53
2023-05-29T11:42:37.360Z,6.90
2023-05-29T11:45:23.044Z,6.15
2023-05-29T11:48:00.761Z,6.13
2023-05-29T11:50:32.181Z,6.22
2023-05-29T11:52:59.837Z,5.75
2023-05-29T11:55:27.643Z,5.87
2023-05-29T11:58:02.110Z,6.45
2023-05-29T12:00:33.871Z,6.65
2023-05-29T12:03:06.767Z,5.53
2023-05-29T12:05:44.823Z,6.07
2023-05-29T12:08:11.569Z,6.22
2023-05-29T12:10:38.758Z,5.85
2023-05-29T12:13:08.771Z,6.05
2023-05-29T12:15:36.559Z,5.80
2023-05-29T12:18:04.160Z,6.20
2023-05-29T12:20:31.574Z,5.77
2023-05-29T12:23:03.157Z,6.07
2023-05-29T12:25:30.236Z,5.82
2023-05-29T12:27:59.265Z,5.78
2023-05-29T12:30:32.854Z,5.72
2023-05-29T12:33:02.205Z,6.28
2023-05-29T12:35:30.939Z,5.80
2023-05-29T12:38:00.124Z,5.85
2023-05-29T12:40:31.737Z,5.15
2023-05-29T12:43:00.680Z,5.88
2023-05-29T12:45:31.832Z,6.35
2023-05-29T12:48:04.569Z,5.68
2023-05-29T12:50:41.886Z,6.30
2023-05-29T12:53:13.765Z,5.75
2023-05-29T12:55:42.542Z,5.60
2023-05-29T12:58:10.588Z,6.07
2023-05-29T13:00:39.700Z,6.10
2023-05-29T13:03:07.530Z,6.43
2023-05-29T13:05:35.004Z,6.30
2023-05-29T13:08:02.415Z,5.63
2023-05-29T13:10:29.492Z,5.03
2023-05-29T13:12:56.628Z,6.75
2023-05-29T13:15:24.366Z,5.82
2023-05-29T13:17:51.958Z,5.30
2023-05-29T13:20:19.065Z,5.03
2023-05-29T13:22:49.039Z,6.15
2023-05-29T13:25:17.870Z,6.50
2023-05-29T13:27:46.770Z,6.13
2023-05-29T13:30:14.498Z,5.47
2023-05-29T13:32:42.420Z,5.53
2023-05-29T13:35:09.746Z,5.70
2023-05-29T13:37:40.524Z,5.65
2023-05-29T13:40:10.723Z,4.93
2023-05-29T13:42:39.453Z,5.80
2023-05-29T13:45:08.469Z,5.03
2023-05-29T13:47:36.658Z,5.38
2023-05-29T13:50:03.899Z,5.60
2023-05-29T13:52:30.748Z,5.75
2023-05-29T13:55:00.648Z,5.30
2023-05-29T13:57:27.364Z,5.57
2023-05-29T13:59:54.005Z,5.05
2023-05-29T14:02:20.767Z,4.85
2023-05-29T14:04:47.370Z,5.80
2023-05-29T14:07:14.087Z,5.35
2023-05-29T14:09:41.041Z,6.00
2023-05-29T14:12:08.145Z,5.30
2023-05-29T14:14:36.024Z,5.78
2023-05-29T14:17:02.706Z,5.32
2023-05-29T14:19:29.496Z,5.13
2023-05-29T14:21:56.445Z,5.28
2023-05-29T14:24:23.351Z,5.03
2023-05-29T14:26:50.472Z,5.43
2023-05-29T14:29:17.269Z,5.55
2023-05-29T14:31:45.204Z,5.78
2023-05-29T14:34:13.294Z,4.97
2023-05-29T14:36:41.126Z,4.95
2023-05-29T14:39:08.334Z,5.53
2023-05-29T14:41:36.533Z,5.22
2023-05-29T14:44:04.078Z,6.05
2023-05-29T14:46:33.440Z,5.20
2023-05-29T14:49:01.253Z,4.97
2023-05-29T14:51:28.812Z,5.38
2023-05-29T14:53:56.055Z,4.90
2023-05-29T14:56:23.243Z,5.53
2023-05-29T14:58:50.092Z,4.93
2023-05-29T15:01:20.913Z,5.63
2023-05-29T15:03:47.738Z,5.03
2023-05-29T15:06:14.669Z,5.25
2023-05-29T15:08:44.684Z,4.97
2023-05-29T15:11:13.999Z,5.03
2023-05-29T15:13:41.475Z,4.57
2023-05-29T15:16:08.813Z,5.40
2023-05-29T15:18:35.941Z,5.13
2023-05-29T15:21:03.174Z,5.13
2023-05-29T15:23:30.013Z,5.00
2023-05-29T15:25:56.909Z,5.32
2023-05-29T15:28:23.845Z,5.00
2023-05-29T15:30:50.570Z,4.72
2023-05-29T15:33:17.471Z,5.95
2023-05-29T15:35:44.299Z,5.25
2023-05-29T15:38:13.756Z,5.30
2023-05-29T15:40:42.008Z,4.68
2023-05-29T15:43:09.943Z,4.90
2023-05-29T15:45:40.013Z,4.70
2023-05-29T15:48:07.156Z,5.32
2023-05-29T15:50:34.033Z,4.90
2023-05-29T15:53:00.741Z,5.07
2023-05-29T15:55:27.864Z,4.88
2023-05-29T15:57:54.925Z,5.05
2023-05-29T16:00:21.949Z,5.18
2023-05-29T16:02:48.984Z,5.07
2023-05-29T16:05:15.919Z,5.72
2023-05-29T16:07:46.811Z,5.22
2023-05-29T16:10:13.446Z,5.07
2023-05-29T16:12:40.144Z,4.80
2023-05-29T16:15:07.645Z,5.10
2023-05-29T16:17:34.468Z,5.47
2023-05-29T16:20:01.354Z,5.30
2023-05-29T16:24:57.690Z,5.28
2023-05-29T16:27:24.314Z,5.00
2023-05-29T16:29:51.016Z,5.05
2023-05-29T16:32:17.707Z,5.32
2023-05-29T16:34:45.118Z,5.63
2023-05-29T16:37:11.988Z,5.20
2023-05-29T16:39:39.766Z,5.10
2023-05-29T16:42:06.964Z,5.27
2023-05-29T16:44:34.087Z,5.88
2023-05-29T16:47:01.350Z,5.13
2023-05-29T16:49:28.301Z,5.00
2023-05-29T16:51:55.014Z,5.55
2023-05-29T16:54:21.755Z,5.63
2023-05-29T16:56:48.424Z,5.50
2023-05-29T16:59:15.185Z,5.25
2023-05-29T17:01:41.983Z,5.35
2023-05-29T17:04:11.879Z,5.13
2023-05-29T17:06:38.864Z,5.90
2023-05-29T17:09:06.091Z,5.55
2023-05-29T17:11:32.782Z,5.07
2023-05-29T17:13:59.469Z,4.90
2023-05-29T17:16:26.322Z,5.25
2023-05-29T17:18:53.045Z,4.93
2023-05-29T17:21:19.876Z,5.30
2023-05-29T17:23:46.726Z,4.90
2023-05-29T17:26:13.764Z,4.57
2023-05-29T17:28:43.059Z,5.15
2023-05-29T17:31:10.149Z,4.55
2023-05-29T17:33:36.809Z,5.05
2023-05-29T17:36:03.571Z,7.97
2023-05-29T17:38:30.485Z,6.18
2023-05-29T17:40:57.303Z,6.20
2023-05-29T17:43:24.248Z,5.28
2023-05-29T17:45:53.588Z,5.32
2023-05-29T17:48:21.227Z,5.18
2023-05-29T17:50:47.925Z,4.90
2023-05-29T17:53:14.999Z,4.80
2023-05-29T17:55:41.737Z,4.45
2023-05-29T17:58:08.995Z,4.95
2023-05-29T18:00:37.724Z,5.45
2023-05-29T18:03:06.004Z,5.20
2023-05-29T18:05:34.074Z,5.32
2023-05-29T18:08:01.098Z,5.50
2023-05-29T18:10:28.059Z,5.13
2023-05-29T18:12:54.776Z,5.30
2023-05-29T18:15:23.834Z,5.63
2023-05-29T18:17:50.599Z,5.40
2023-05-29T18:20:17.957Z,6.75
2023-05-29T18:22:44.701Z,4.97
2023-05-29T18:25:12.518Z,5.38
2023-05-29T18:27:39.351Z,5.35
2023-05-29T18:30:06.809Z,5.03
2023-05-29T18:32:37.619Z,5.15
2023-05-29T18:35:04.889Z,8.27
2023-05-29T18:37:31.732Z,5.85
2023-05-29T18:39:58.383Z,6.25
2023-05-29T18:42:25.514Z,5.50
2023-05-29T18:44:52.568Z,5.80
2023-05-29T18:47:19.247Z,5.10
2023-05-29T18:49:46.150Z,5.50
2023-05-29T18:52:12.963Z,5.50
2023-05-29T18:54:39.599Z,4.90
2023-05-29T18:57:08.853Z,8.60
2023-05-29T18:59:35.668Z,8.02
2023-05-29T19:02:02.465Z,6.75
2023-05-29T19:04:31.789Z,6.30
2023-05-29T19:06:58.831Z,5.53
2023-05-29T19:09:25.930Z,5.80
2023-05-29T19:11:52.638Z,5.60
2023-05-29T19:14:19.433Z,5.88
2023-05-29T19:16:46.308Z,5.55
2023-05-29T19:19:12.975Z,5.88
2023-05-29T19:21:40.856Z,5.68
2023-05-29T19:24:07.650Z,5.85
2023-05-29T19:26:35.773Z,6.03
2023-05-29T19:29:02.827Z,5.57
2023-05-29T19:31:29.883Z,6.80
2023-05-29T19:33:57.186Z,6.03
2023-05-29T19:36:25.312Z,6.00
2023-05-29T19:38:52.754Z,6.07
2023-05-29T19:41:20.508Z,6.00
2023-05-29T19:43:47.375Z,5.90
2023-05-29T19:46:14.152Z,6.57
2023-05-29T19:48:41.099Z,6.05
2023-05-29T19:51:08.400Z,5.70
2023-05-29T19:53:35.606Z,5.82
2023-05-29T19:56:02.367Z,5.90
2023-05-29T19:58:29.105Z,5.88
2023-05-29T20:00:57.342Z,6.60
2023-05-29T20:03:24.419Z,6.78
2023-05-29T20:05:51.275Z,6.80
2023-05-29T20:08:18.250Z,6.55
2023-05-29T20:10:47.911Z,6.80
2023-05-29T20:13:18.955Z,6.85
2023-05-29T20:15:45.655Z,6.88
2023-05-29T20:18:12.429Z,6.53
2023-05-29T20:20:39.189Z,6.53
2023-05-29T20:23:05.869Z,6.50
2023-05-29T20:25:32.588Z,6.60
2023-05-29T20:27:59.343Z,7.00
2023-05-29T20:30:26.156Z,7.20
2023-05-29T20:32:52.800Z,6.97
2023-05-29T20:35:22.330Z,7.15
2023-05-29T20:37:52.904Z,7.53
2023-05-29T20:40:21.158Z,7.43
2023-05-29T20:42:48.256Z,6.97
2023-05-29T20:45:16.026Z,6.82
2023-05-29T20:47:45.494Z,7.63
2023-05-29T20:50:12.667Z,7.68
2023-05-29T20:52:39.595Z,7.32
2023-05-29T20:55:06.841Z,6.65
2023-05-29T20:57:33.662Z,7.78
2023-05-29T21:00:00.571Z,7.10
2023-05-29T21:02:27.354Z,7.30
2023-05-29T21:04:54.117Z,7.78
2023-05-29T21:07:20.785Z,6.63
2023-05-29T21:09:47.533Z,8.18
2023-05-29T21:12:14.221Z,7.05
2023-05-29T21:14:41.331Z,6.57
2023-05-29T21:17:08.231Z,7.53
2023-05-29T21:19:34.943Z,6.95
2023-05-29T21:22:02.292Z,6.88
2023-05-29T21:24:29.199Z,7.57
2023-05-29T21:26:56.171Z,6.97
2023-05-29T21:29:22.856Z,7.43
2023-05-29T21:31:50.227Z,7.03
2023-05-29T21:34:20.032Z,7.13
2023-05-29T21:36:48.467Z,6.63
2023-05-29T21:39:16.378Z,7.07
2023-05-29T21:41:44.512Z,7.30
2023-05-29T21:44:11.151Z,7.38
2023-05-29T21:46:38.200Z,7.00
2023-05-29T21:49:04.886Z,7.60
2023-05-29T21:51:34.232Z,7.50
2023-05-29T21:54:00.985Z,7.10
2023-05-29T21:56:30.829Z,7.07
2023-05-29T21:58:57.610Z,9.00
2023-05-29T22:01:24.355Z,8.68
2023-05-29T22:03:53.625Z,8.82
2023-05-29T22:06:20.271Z,8.63
2023-05-29T22:08:48.418Z,7.68
2023-05-29T22:11:15.162Z,7.40
2023-05-29T22:13:42.078Z,7.13
2023-05-29T22:16:09.076Z,7.85
2023-05-29T22:18:38.105Z,7.50
2023-05-29T22:21:06.642Z,7.57
2023-05-29T22:23:33.309Z,7.28
2023-05-29T22:26:02.965Z,7.68
2023-05-29T22:28:30.255Z,7.43
2023-05-29T22:30:58.270Z,7.68
2023-05-29T22:33:25.280Z,7.72
2023-05-29T22:35:51.932Z,7.13
2023-05-29T22:38:19.524Z,7.50
2023-05-29T22:40:46.420Z,8.05
2023-05-29T22:43:13.605Z,7.75
2023-05-29T22:45:40.321Z,7.18
2023-05-29T22:48:07.092Z,7.70
2023-05-29T22:50:34.621Z,7.60
2023-05-29T22:53:01.876Z,7.47
2023-05-29T22:55:28.880Z,7.70
2023-05-29T22:57:56.768Z,7.90
2023-05-29T23:00:25.209Z,8.47
2023-05-29T23:02:52.002Z,8.85
2023-05-29T23:05:19.583Z,7.88
2023-05-29T23:07:46.400Z,7.90
2023-05-29T23:10:13.832Z,8.60
2023-05-29T23:12:40.611Z,8.93
2023-05-29T23:15:08.149Z,8.98
2023-05-29T23:17:34.885Z,8.00
2023-05-29T23:20:01.983Z,8.27
2023-05-29T23:22:28.839Z,9.05
2023-05-29T23:24:55.497Z,9.48
2023-05-29T23:27:22.173Z,8.98
2023-05-29T23:29:49.133Z,9.35
2023-05-29T23:32:16.589Z,8.57
2023-05-29T23:34:43.806Z,8.32
2023-05-29T23:37:10.716Z,9.13
2023-05-29T23:39:37.478Z,9.77
2023-05-29T23:42:04.663Z,8.38
2023-05-29T23:44:32.648Z,9.45
2023-05-29T23:46:59.273Z,8.45
2023-05-29T23:49:28.986Z,9.30
2023-05-29T23:51:59.190Z,8.85
2023-05-29T23:54:25.958Z,8.85
2023-05-29T23:56:52.791Z,9.25
2023-05-29T23:59:19.638Z,9.07
